Time;durP1;ratioP1;P1;durP2;ratioP2;P2;SDS_P1;SDS_P2;PMS_P1;PMS_P2;Temp;Humidity;BMP_temperature;BMP_pressure;BME280_temperature;BME280_humidity;BME280_pressure;Samples;Min_cycle;Max_cycle;Signal;HPM_P1;HPM_P2
2023/05/05 00:00:14;;;;;;;;;;;;;;;19.65;66.48;101315.47;7397088;19;1808;-49
2023/05/05 00:02:42;;;;;;;;;;;;;;;19.69;66.19;101316.91;7395110;19;1430;-49
2023/05/05 00:05:11;;;;;;;;;;;;;;;19.63;66.60;101312.06;7395538;19;1566;-49
2023/05/05 00:07:39;;;;;;;;;;;;;;;19.61;66.48;101305.97;7395166;19;1653;-48
2023/05/05 00:10:08;;;;;;;;;;;;;;;19.61;66.48;101303.28;7395572;19;1380;-49
2023/05/05 00:12:39;;;;;;;;;;;;;;;19.66;66.22;101311.81;7393940;19;1849;-49
2023/05/05 00:15:08;;;;;;;;;;;;;;;19.58;66.65;101300.88;7395139;19;1853;-49
2023/05/05 00:17:36;;;;;;;;;;;;;;;19.65;66.29;101310.09;7396652;19;1516;-49
2023/05/05 00:20:05;;;;;;;;;;;;;;;19.60;66.36;101306.97;7396645;19;1777;-49
2023/05/05 00:22:33;;;;;;;;;;;;;;;19.64;66.34;101313.78;7396437;19;1370;-48
2023/05/05 00:25:01;;;;;;;;;;;;;;;19.59;66.57;101302.56;7396918;19;1517;-50
2023/05/05 00:27:30;;;;;;;;;;;;;;;19.48;66.85;101304.28;7396545;19;1865;-49
2023/05/05 00:30:01;;;;;;;;;;;;;;;19.54;66.68;101300.25;7395763;19;1583;-48
2023/05/05 00:32:32;;;;;;;;;;;;;;;19.59;66.46;101299.88;7393019;19;1615;-49
2023/05/05 00:35:01;;;;;;;;;;;;;;;19.52;66.54;101293.28;7395152;19;1849;-48
2023/05/05 00:37:29;;;;;;;;;;;;;;;19.55;66.75;101293.91;7395744;19;1897;-47
2023/05/05 00:39:58;;;;;;;;;;;;;;;19.63;66.55;101295.94;7394913;19;1198;-48
2023/05/05 00:42:26;;;;;;;;;;;;;;;19.53;66.58;101295.84;7395615;19;1255;-48
2023/05/05 00:44:54;;;;;;;;;;;;;;;19.48;66.90;101298.94;7401899;19;1143;-49
2023/05/05 00:47:25;;;;;;;;;;;;;;;19.52;66.77;101298.66;7401973;19;1489;-48
2023/05/05 00:49:53;;;;;;;;;;;;;;;19.56;66.61;101298.31;7403011;19;1460;-48
2023/05/05 00:52:22;;;;;;;;;;;;;;;19.59;66.57;101306.06;7402420;19;1766;-48
2023/05/05 00:54:50;;;;;;;;;;;;;;;19.52;66.60;101307.59;7401702;19;1878;-47
2023/05/05 00:57:18;;;;;;;;;;;;;;;19.52;66.40;101302.22;7402496;19;1391;-51
2023/05/05 00:59:48;;;;;;;;;;;;;;;19.50;66.68;101301.50;7402292;19;1725;-48
2023/05/05 01:02:16;;;;;;;;;;;;;;;19.48;66.59;101296.25;7402195;19;1796;-48
2023/05/05 01:04:47;;;;;;;;;;;;;;;19.47;66.79;101302.56;7400780;19;1378;-48
2023/05/05 01:07:21;;;;;;;;;;;;;;;19.58;66.47;101296.34;7402875;19;1811;-50
2023/05/05 01:09:51;;;;;;;;;;;;;;;19.51;66.48;101294.28;7400676;19;1076;-49
2023/05/05 01:12:26;;;;;;;;;;;;;;;19.59;66.23;101289.13;7399227;19;1860;-48
2023/05/05 01:15:02;;;;;;;;;;;;;;;19.53;66.26;101300.38;7400084;19;1846;-48
2023/05/05 01:17:35;;;;;;;;;;;;;;;19.48;66.45;101288.19;7401541;19;1733;-48
2023/05/05 01:20:14;;;;;;;;;;;;;;;19.55;66.21;101293.06;7400968;19;1970;-48
2023/05/05 01:22:44;;;;;;;;;;;;;;;19.53;66.69;101293.19;7400626;19;1393;-49
2023/05/05 01:25:30;;;;;;;;;;;;;;;19.45;67.04;101275.03;7400150;19;1512;-47
2023/05/05 01:28:09;;;;;;;;;;;;;;;19.47;66.97;101283.78;7399008;19;1955;-48
2023/05/05 01:30:49;;;;;;;;;;;;;;;19.51;66.86;101281.72;7400456;19;1441;-48
2023/05/05 01:33:24;;;;;;;;;;;;;;;19.47;66.99;101288.31;7400438;19;1555;-48
2023/05/05 01:35:55;;;;;;;;;;;;;;;19.46;67.09;101283.94;7398959;19;1905;-47
2023/05/05 01:38:24;;;;;;;;;;;;;;;19.41;67.17;101281.63;7400541;19;1262;-48
2023/05/05 01:40:56;;;;;;;;;;;;;;;19.45;67.55;101275.03;7399751;19;1158;-48
2023/05/05 01:43:25;;;;;;;;;;;;;;;19.42;67.71;101295.91;7400477;19;1460;-48
2023/05/05 01:45:54;;;;;;;;;;;;;;;19.61;67.54;101289.88;7399870;19;1373;-48
2023/05/05 01:48:26;;;;;;;;;;;;;;;20.14;65.99;101281.88;7399527;19;1209;-48
2023/05/05 01:50:54;;;;;;;;;;;;;;;20.24;65.77;101287.31;7401713;19;1586;-47
2023/05/05 01:53:25;;;;;;;;;;;;;;;20.18;65.88;101286.00;7401832;19;1821;-48
2023/05/05 01:55:55;;;;;;;;;;;;;;;20.22;66.16;101292.81;7397040;19;1853;-49
2023/05/05 01:58:25;;;;;;;;;;;;;;;20.25;66.04;101275.56;7401211;19;1311;-48
2023/05/05 02:00:55;;;;;;;;;;;;;;;20.45;65.52;101276.53;7400771;19;1876;-48
2023/05/05 02:03:26;;;;;;;;;;;;;;;20.55;65.16;101285.53;7400474;19;1856;-48
2023/05/05 02:05:55;;;;;;;;;;;;;;;20.57;64.93;101278.19;7400242;19;1809;-48
2023/05/05 02:08:25;;;;;;;;;;;;;;;20.55;64.93;101288.22;7396975;19;1822;-48
2023/05/05 02:10:54;;;;;;;;;;;;;;;20.57;65.13;101283.56;7399080;19;1059;-49
2023/05/05 02:13:23;;;;;;;;;;;;;;;20.60;65.15;101285.16;7399779;19;1587;-48
2023/05/05 02:15:52;;;;;;;;;;;;;;;20.58;65.21;101274.50;7398092;19;1825;-49
2023/05/05 02:18:21;;;;;;;;;;;;;;;20.63;64.77;101280.38;7399331;19;1797;-49
2023/05/05 02:20:52;;;;;;;;;;;;;;;20.62;64.92;101273.28;7398656;19;1555;-49
2023/05/05 02:23:21;;;;;;;;;;;;;;;20.65;64.70;101267.66;7399252;19;1627;-50
2023/05/05 02:25:51;;;;;;;;;;;;;;;20.68;64.83;101271.88;7398410;19;1609;-50
2023/05/05 02:28:22;;;;;;;;;;;;;;;20.69;64.79;101280.78;7397500;19;1926;-50
2023/05/05 02:30:53;;;;;;;;;;;;;;;20.75;64.69;101269.50;7398247;19;1211;-50
2023/05/05 02:33:22;;;;;;;;;;;;;;;20.74;64.53;101259.75;7396360;19;1192;-49
2023/05/05 02:35:55;;;;;;;;;;;;;;;20.76;64.67;101279.28;7398953;19;1817;-49
2023/05/05 02:38:25;;;;;;;;;;;;;;;20.75;64.52;101275.75;7398112;19;1836;-49
2023/05/05 02:40:56;;;;;;;;;;;;;;;20.74;64.64;101271.34;7398341;19;1409;-48
2023/05/05 02:43:26;;;;;;;;;;;;;;;20.78;64.63;101270.09;7395784;19;1705;-48
2023/05/05 02:45:54;;;;;;;;;;;;;;;20.78;64.52;101270.09;7399396;19;1796;-50
2023/05/05 02:48:23;;;;;;;;;;;;;;;20.83;64.49;101275.06;7398563;19;1737;-48
2023/05/05 02:50:53;;;;;;;;;;;;;;;20.85;64.22;101278.50;7399036;19;1773;-49
2023/05/05 02:53:26;;;;;;;;;;;;;;;20.86;64.19;101269.41;7399245;19;1394;-50
2023/05/05 02:55:55;;;;;;;;;;;;;;;20.88;64.17;101278.19;7397174;19;1863;-50
2023/05/05 02:58:25;;;;;;;;;;;;;;;20.93;64.43;101275.97;7399967;19;995;-50
2023/05/05 03:00:57;;;;;;;;;;;;;;;20.90;64.30;101278.91;7398830;19;1879;-50
2023/05/05 03:03:27;;;;;;;;;;;;;;;20.90;64.24;101270.84;7398548;19;1876;-50
2023/05/05 03:06:02;;;;;;;;;;;;;;;20.91;64.27;101283.31;7396943;19;1569;-49
2023/05/05 03:08:35;;;;;;;;;;;;;;;20.95;64.07;101274.00;7396240;19;1279;-49
2023/05/05 03:11:06;;;;;;;;;;;;;;;20.94;64.01;101277.66;7396681;19;1297;-50
2023/05/05 03:13:36;;;;;;;;;;;;;;;20.96;64.06;101282.91;7397400;19;1556;-48
2023/05/05 03:16:05;;;;;;;;;;;;;;;20.96;64.01;101275.69;7395659;19;1848;-48
2023/05/05 03:18:36;;;;;;;;;;;;;;;21.02;63.86;101280.50;7397361;19;1645;-48
2023/05/05 03:21:09;;;;;;;;;;;;;;;21.20;63.46;101275.31;7397296;19;1468;-51
2023/05/05 03:23:38;;;;;;;;;;;;;;;21.36;63.16;101290.94;7395648;19;1380;-49
2023/05/05 03:26:06;;;;;;;;;;;;;;;21.46;62.92;101277.53;7396853;19;1167;-48
2023/05/05 03:28:34;;;;;;;;;;;;;;;21.53;62.56;101280.53;7396819;19;1139;-48
2023/05/05 03:31:02;;;;;;;;;;;;;;;21.54;62.48;101275.00;7395780;19;1556;-49
2023/05/05 03:33:31;;;;;;;;;;;;;;;21.59;62.64;101282.66;7395400;19;1864;-48
2023/05/05 03:35:59;;;;;;;;;;;;;;;21.53;62.99;101285.94;7395520;19;1890;-49
2023/05/05 03:38:30;;;;;;;;;;;;;;;21.41;63.75;101275.25;7397223;19;1725;-48
2023/05/05 03:40:58;;;;;;;;;;;;;;;21.08;64.26;101264.84;7396188;19;1782;-48
2023/05/05 03:43:27;;;;;;;;;;;;;;;21.02;64.13;101299.34;6875225;19;10000501;-49
2023/05/05 03:45:55;;;;;;;;;;;;;;;21.12;64.91;101293.16;7394917;19;1444;-49
2023/05/05 03:48:23;;;;;;;;;;;;;;;20.77;66.27;101295.28;7389280;19;1505;-49
2023/05/05 03:50:51;;;;;;;;;;;;;;;20.54;66.30;101294.56;7396018;19;1603;-48
2023/05/05 03:53:20;;;;;;;;;;;;;;;20.35;66.98;101299.81;7393566;19;1456;-49
2023/05/05 03:55:51;;;;;;;;;;;;;;;20.53;66.32;101300.06;7395681;19;1854;-49
2023/05/05 03:58:19;;;;;;;;;;;;;;;20.75;65.40;101299.94;7396792;19;1714;-49
2023/05/05 04:00:47;;;;;;;;;;;;;;;20.82;65.08;101300.25;7395417;19;1278;-49
2023/05/05 04:03:15;;;;;;;;;;;;;;;20.73;65.27;101309.09;7395631;19;1563;-49
2023/05/05 04:05:44;;;;;;;;;;;;;;;20.71;65.36;101293.13;7396643;19;1210;-48
2023/05/05 04:08:12;;;;;;;;;;;;;;;20.66;65.19;101304.28;7392176;19;1965;-48
2023/05/05 04:10:40;;;;;;;;;;;;;;;20.55;65.44;101288.22;7392364;19;1472;-49
2023/05/05 04:13:11;;;;;;;;;;;;;;;20.55;65.40;101296.28;7391759;19;1730;-49
2023/05/05 04:15:40;;;;;;;;;;;;;;;20.55;65.13;101298.97;7391826;19;1867;-49
2023/05/05 04:18:08;;;;;;;;;;;;;;;20.48;65.40;101289.72;7391776;19;935;-49
2023/05/05 04:20:36;;;;;;;;;;;;;;;20.45;65.56;101304.28;7399601;19;1102;-48
2023/05/05 04:23:05;;;;;;;;;;;;;;;20.44;65.58;101301.72;7399323;19;1793;-49
2023/05/05 04:25:33;;;;;;;;;;;;;;;20.38;65.39;101288.81;7401788;19;1936;-49
2023/05/05 04:28:01;;;;;;;;;;;;;;;20.33;65.58;101301.78;7402153;19;1992;-49
2023/05/05 04:30:32;;;;;;;;;;;;;;;20.29;65.92;101303.88;7403035;19;1811;-49
2023/05/05 04:33:01;;;;;;;;;;;;;;;20.27;65.54;101304.03;7402749;19;1735;-49
2023/05/05 04:35:29;;;;;;;;;;;;;;;20.23;65.69;101315.13;7401047;19;1843;-49
2023/05/05 04:37:57;;;;;;;;;;;;;;;20.24;65.78;101301.56;7402339;19;1560;-49
2023/05/05 04:40:26;;;;;;;;;;;;;;;20.18;65.70;101302.09;7401744;19;1401;-48
2023/05/05 04:42:54;;;;;;;;;;;;;;;20.12;66.03;101310.69;7402071;19;1722;-49
2023/05/05 04:45:22;;;;;;;;;;;;;;;20.17;65.98;101299.53;7402972;19;1358;-49
2023/05/05 04:47:53;;;;;;;;;;;;;;;20.14;65.88;101295.28;7401838;19;1366;-49
2023/05/05 04:50:21;;;;;;;;;;;;;;;20.14;65.87;101306.03;7403563;19;957;-49
2023/05/05 04:52:50;;;;;;;;;;;;;;;20.07;66.07;101304.84;7403162;19;1840;-49
2023/05/05 04:55:18;;;;;;;;;;;;;;;20.10;65.83;101309.97;7402489;19;1946;-49
2023/05/05 04:57:46;;;;;;;;;;;;;;;20.07;66.10;101310.19;7401872;19;1967;-49
2023/05/05 05:00:15;;;;;;;;;;;;;;;20.05;66.02;101313.03;7402532;19;1801;-49
2023/05/05 05:02:44;;;;;;;;;;;;;;;20.05;65.93;101306.78;7401764;19;1741;-49
2023/05/05 05:05:14;;;;;;;;;;;;;;;20.05;65.95;101312.16;7402134;19;1370;-49
2023/05/05 05:07:43;;;;;;;;;;;;;;;20.02;65.97;101315.13;7400227;19;1548;-47
2023/05/05 05:10:11;;;;;;;;;;;;;;;19.99;66.02;101323.41;7401002;19;1519;-49
2023/05/05 05:12:40;;;;;;;;;;;;;;;20.03;65.98;101323.06;7401491;19;1301;-49
2023/05/05 05:15:09;;;;;;;;;;;;;;;19.97;66.26;101325.38;7402394;19;1943;-48
2023/05/05 05:17:37;;;;;;;;;;;;;;;19.95;66.18;101317.44;7398668;19;1839;-49
2023/05/05 05:20:06;;;;;;;;;;;;;;;19.99;65.94;101323.41;7400776;19;1856;-49
2023/05/05 05:22:37;;;;;;;;;;;;;;;19.96;65.98;101321.00;7401374;19;1870;-48
2023/05/05 05:25:06;;;;;;;;;;;;;;;19.93;66.20;101323.94;7401052;19;1684;-49
2023/05/05 05:27:34;;;;;;;;;;;;;;;19.98;65.96;101329.78;7400684;19;1757;-49
2023/05/05 05:30:02;;;;;;;;;;;;;;;19.96;65.97;101329.06;7397850;19;1711;-48
2023/05/05 05:32:31;;;;;;;;;;;;;;;20.04;66.01;101334.63;7400031;19;1776;-49
2023/05/05 05:34:59;;;;;;;;;;;;;;;19.99;65.78;101334.16;7398935;19;1378;-48
2023/05/05 05:37:30;;;;;;;;;;;;;;;19.94;66.14;101336.41;7398988;19;1840;-49
2023/05/05 05:40:01;;;;;;;;;;;;;;;19.93;65.86;101329.31;7400568;19;1753;-49
2023/05/05 05:42:29;;;;;;;;;;;;;;;19.93;65.98;101343.56;7402011;19;1048;-49
2023/05/05 05:44:58;;;;;;;;;;;;;;;19.97;65.88;101339.66;7401115;19;1131;-49
2023/05/05 05:47:26;;;;;;;;;;;;;;;19.94;65.99;101328.34;7399979;19;1958;-49
2023/05/05 05:49:55;;;;;;;;;;;;;;;19.91;65.94;101332.13;7399388;19;1488;-49
2023/05/05 05:52:23;;;;;;;;;;;;;;;19.94;65.72;101336.41;7399821;19;1610;-49
2023/05/05 05:54:51;;;;;;;;;;;;;;;19.89;66.04;101341.28;7400944;19;1025;-49
2023/05/05 05:57:23;;;;;;;;;;;;;;;19.94;65.86;101331.03;7398638;19;1865;-48
2023/05/05 05:59:52;;;;;;;;;;;;;;;19.92;65.86;101346.41;7399772;19;1947;-48
2023/05/05 06:02:20;;;;;;;;;;;;;;;19.95;65.75;101346.13;7399898;19;1564;-49
2023/05/05 06:04:49;;;;;;;;;;;;;;;19.85;65.88;101338.00;7397628;19;1552;-49
2023/05/05 06:07:17;;;;;;;;;;;;;;;19.92;65.92;101349.09;7399682;19;1567;-48
2023/05/05 06:09:46;;;;;;;;;;;;;;;19.92;65.72;101346.41;7398248;19;1134;-49
2023/05/05 06:12:14;;;;;;;;;;;;;;;19.99;65.75;101334.16;7397474;19;1805;-49
2023/05/05 06:14:45;;;;;;;;;;;;;;;19.95;65.73;101343.44;7400775;19;1734;-49
2023/05/05 06:17:13;;;;;;;;;;;;;;;19.89;65.88;101338.59;7398988;19;1847;-49
2023/05/05 06:19:42;;;;;;;;;;;;;;;19.88;65.81;101340.44;7401487;19;963;-48
2023/05/05 06:22:10;;;;;;;;;;;;;;;19.85;65.98;101354.09;7400298;19;1960;-48
2023/05/05 06:24:38;;;;;;;;;;;;;;;19.82;66.14;101349.84;7400173;19;1860;-48
2023/05/05 06:27:07;;;;;;;;;;;;;;;19.85;65.99;101346.03;7399080;19;1520;-49
2023/05/05 06:29:35;;;;;;;;;;;;;;;19.81;66.05;101334.72;7399734;19;1485;-49
2023/05/05 06:32:07;;;;;;;;;;;;;;;19.79;65.96;101343.88;7399311;19;1737;-48
2023/05/05 06:34:35;;;;;;;;;;;;;;;19.77;66.07;101352.03;7399650;19;1754;-49
2023/05/05 06:37:03;;;;;;;;;;;;;;;19.77;66.33;101346.69;7397413;19;1855;-48
2023/05/05 06:39:31;;;;;;;;;;;;;;;19.73;66.30;101350.59;7400381;19;1073;-49
2023/05/05 06:42:00;;;;;;;;;;;;;;;19.79;66.13;101360.81;7397296;19;1548;-49
2023/05/05 06:44:29;;;;;;;;;;;;;;;19.82;65.88;101354.38;7399124;19;1554;-48
2023/05/05 06:46:58;;;;;;;;;;;;;;;19.92;65.63;101354.47;7398218;19;1547;-49
2023/05/05 06:49:29;;;;;;;;;;;;;;;19.92;65.64;101358.00;7398602;19;1660;-49
2023/05/05 06:51:57;;;;;;;;;;;;;;;19.90;65.66;101359.09;7399097;19;1849;-49
2023/05/05 06:54:25;;;;;;;;;;;;;;;19.96;65.30;101355.91;7400299;19;1028;-49
2023/05/05 06:56:53;;;;;;;;;;;;;;;19.95;65.48;101362.25;7397951;19;1854;-48
2023/05/05 06:59:22;;;;;;;;;;;;;;;19.94;65.41;101360.56;7398105;19;1958;-49
2023/05/05 07:01:51;;;;;;;;;;;;;;;19.88;65.53;101355.69;7399259;19;1468;-49
2023/05/05 07:04:20;;;;;;;;;;;;;;;19.88;65.53;101359.22;7398500;19;1733;-49
2023/05/05 07:06:51;;;;;;;;;;;;;;;19.86;65.55;101362.03;7399129;19;1914;-49
2023/05/05 07:09:19;;;;;;;;;;;;;;;19.88;65.50;101356.53;7396890;19;1952;-49
2023/05/05 07:11:47;;;;;;;;;;;;;;;19.88;65.66;101369.97;7398139;19;1826;-49
2023/05/05 07:14:16;;;;;;;;;;;;;;;19.85;65.69;101371.03;7400194;19;1015;-48
2023/05/05 07:16:45;;;;;;;;;;;;;;;19.81;65.68;101345.44;7398157;19;1936;-49
2023/05/05 07:19:13;;;;;;;;;;;;;;;19.86;65.58;101366.56;7397096;19;1183;-49
2023/05/05 07:21:41;;;;;;;;;;;;;;;19.84;65.74;101373.88;7395903;19;1612;-49
2023/05/05 07:24:12;;;;;;;;;;;;;;;19.79;65.73;101366.19;7397538;19;1610;-49
2023/05/05 07:26:41;;;;;;;;;;;;;;;19.84;65.63;101353.25;7397396;19;1286;-49
2023/05/05 07:29:09;;;;;;;;;;;;;;;19.89;65.52;101365.44;7397370;19;1516;-49
2023/05/05 07:31:37;;;;;;;;;;;;;;;19.91;65.38;101358.97;7396724;19;1567;-49
2023/05/05 07:34:05;;;;;;;;;;;;;;;20.00;65.09;101371.63;7397550;19;1274;-49
2023/05/05 07:36:34;;;;;;;;;;;;;;;20.01;65.16;101376.00;7397261;19;1892;-49
2023/05/05 07:39:02;;;;;;;;;;;;;;;19.98;65.08;101370.06;7396375;19;1298;-49
2023/05/05 07:41:33;;;;;;;;;;;;;;;20.05;65.01;101374.78;7396904;19;1595;-48
2023/05/05 07:44:02;;;;;;;;;;;;;;;20.06;64.91;101376.47;7396241;19;1223;-49
2023/05/05 07:46:30;;;;;;;;;;;;;;;20.10;64.99;101378.94;7396614;19;1587;-49
2023/05/05 07:48:58;;;;;;;;;;;;;;;20.18;64.33;101379.97;7396218;19;1580;-49
2023/05/05 07:51:26;;;;;;;;;;;;;;;20.14;64.52;101367.78;7397504;19;1179;-48
2023/05/05 07:53:55;;;;;;;;;;;;;;;20.16;64.59;101371.19;7394333;19;1552;-49
2023/05/05 07:56:23;;;;;;;;;;;;;;;20.09;64.66;101369.16;7396241;19;1871;-49
2023/05/05 07:58:54;;;;;;;;;;;;;;;20.14;64.56;101386.59;7397107;19;1262;-49
2023/05/05 08:01:22;;;;;;;;;;;;;;;19.94;65.16;101380.19;7395708;19;1808;-48
2023/05/05 08:03:50;;;;;;;;;;;;;;;19.80;65.67;101386.69;7395691;19;1744;-49
2023/05/05 08:06:20;;;;;;;;;;;;;;;19.79;65.60;101387.66;7396719;19;911;-49
2023/05/05 08:08:49;;;;;;;;;;;;;;;19.92;64.99;101384.84;7394163;19;1588;-52
2023/05/05 08:11:17;;;;;;;;;;;;;;;19.63;66.35;101389.84;7395647;19;1493;-49
2023/05/05 08:13:45;;;;;;;;;;;;;;;19.70;66.10;101382.19;7396939;19;1030;-49
2023/05/05 08:16:16;;;;;;;;;;;;;;;19.95;65.33;101386.41;7396199;19;1865;-49
2023/05/05 08:18:45;;;;;;;;;;;;;;;19.98;65.24;101376.28;7394781;19;1824;-49
2023/05/05 08:21:13;;;;;;;;;;;;;;;20.04;64.70;101380.28;7395783;19;1726;-49
2023/05/05 08:23:42;;;;;;;;;;;;;;;20.07;64.71;101393.44;7396298;19;1870;-49
2023/05/05 08:26:10;;;;;;;;;;;;;;;20.14;64.47;101401.84;7396436;19;961;-49
2023/05/05 08:28:39;;;;;;;;;;;;;;;20.12;64.44;101388.53;7395980;19;1857;-49
2023/05/05 08:31:08;;;;;;;;;;;;;;;20.12;64.48;101391.22;7394515;19;1234;-49
2023/05/05 08:33:39;;;;;;;;;;;;;;;20.14;64.78;101407.22;7395254;19;1540;-49
2023/05/05 08:36:07;;;;;;;;;;;;;;;20.14;64.40;101397.31;7396313;19;1258;-49
2023/05/05 08:38:36;;;;;;;;;;;;;;;20.12;64.58;101391.22;7393540;19;1846;-49
2023/05/05 08:41:05;;;;;;;;;;;;;;;20.11;64.46;101385.97;7396434;19;2072;-49
2023/05/05 08:43:34;;;;;;;;;;;;;;;20.17;64.16;101394.38;7394708;19;1823;-49
2023/05/05 08:46:03;;;;;;;;;;;;;;;20.20;64.34;101402.19;7395674;19;1127;-48
2023/05/05 08:48:31;;;;;;;;;;;;;;;20.17;64.34;101386.31;7394666;19;1837;-49
2023/05/05 08:51:05;;;;;;;;;;;;;;;20.14;64.38;101394.66;7394830;19;1376;-49
2023/05/05 08:53:37;;;;;;;;;;;;;;;20.23;64.34;101380.47;7395041;19;1725;-49
2023/05/05 08:56:07;;;;;;;;;;;;;;;20.29;64.34;101387.13;7395081;19;1814;-49
2023/05/05 08:58:38;;;;;;;;;;;;;;;20.27;64.16;101387.28;7392533;19;1855;-48
2023/05/05 09:01:07;;;;;;;;;;;;;;;20.27;64.10;101398.00;7393916;19;1792;-48
2023/05/05 09:03:35;;;;;;;;;;;;;;;20.22;64.36;101394.84;7396204;19;1721;-49
2023/05/05 09:06:06;;;;;;;;;;;;;;;20.30;63.99;101388.00;7403814;19;1006;-49
2023/05/05 09:08:35;;;;;;;;;;;;;;;20.29;63.91;101388.97;7399557;19;1821;-48
2023/05/05 09:11:03;;;;;;;;;;;;;;;20.26;64.00;101393.59;7400734;19;1199;-49
2023/05/05 09:13:32;;;;;;;;;;;;;;;20.23;63.94;101385.84;7402155;19;1175;-48
2023/05/05 09:16:01;;;;;;;;;;;;;;;20.24;63.99;101387.53;7401586;19;1603;-48
2023/05/05 09:18:29;;;;;;;;;;;;;;;20.14;64.31;101391.97;7399664;19;1853;-49
2023/05/05 09:20:57;;;;;;;;;;;;;;;20.20;64.27;101382.53;7401057;19;1555;-49
2023/05/05 09:23:28;;;;;;;;;;;;;;;20.10;64.48;101395.88;7401065;19;1622;-49
2023/05/05 09:26:14;;;;;;;;;;;;;;;20.09;64.42;101399.53;7401194;19;1564;-49
2023/05/05 09:28:52;;;;;;;;;;;;;;;19.93;64.90;101389.19;7400796;19;1516;-49
2023/05/05 09:31:21;;;;;;;;;;;;;;;19.95;64.90;101389.94;7400809;19;1532;-49
2023/05/05 09:33:49;;;;;;;;;;;;;;;20.04;64.65;101365.03;7400935;19;1488;-48
2023/05/05 09:36:18;;;;;;;;;;;;;;;20.02;64.71;101387.63;7402004;19;1227;-48
2023/05/05 09:39:05;;;;;;;;;;;;;;;20.10;64.60;101378.94;7399709;19;1844;-49
2023/05/05 09:41:40;;;;;;;;;;;;;;;19.92;64.86;101379.47;7400220;19;1494;-48
2023/05/05 09:44:09;;;;;;;;;;;;;;;20.08;64.32;101376.34;7401665;19;1333;-49
2023/05/05 09:46:37;;;;;;;;;;;;;;;19.99;64.63;101379.81;7401312;19;1727;-49
2023/05/05 09:49:17;;;;;;;;;;;;;;;20.12;64.29;101367.06;7400117;19;1744;-48
2023/05/05 09:51:45;;;;;;;;;;;;;;;20.12;64.26;101376.97;7400637;19;1422;-49
2023/05/05 09:54:26;;;;;;;;;;;;;;;19.97;64.83;101373.69;7401686;19;1389;-49
2023/05/05 09:56:54;;;;;;;;;;;;;;;20.07;64.50;101371.97;7401979;19;1852;-49
2023/05/05 09:59:23;;;;;;;;;;;;;;;20.10;64.69;101369.03;7401520;19;1027;-49
2023/05/05 10:01:51;;;;;;;;;;;;;;;20.15;64.25;101372.16;7401034;19;1516;-49
2023/05/05 10:04:27;;;;;;;;;;;;;;;20.24;64.05;101357.97;7400565;19;1457;-49
2023/05/05 10:06:56;;;;;;;;;;;;;;;20.26;63.82;101374.81;7396980;19;1927;-49
2023/05/05 10:09:27;;;;;;;;;;;;;;;20.31;63.88;101369.03;7398503;19;1171;-49
2023/05/05 10:11:57;;;;;;;;;;;;;;;20.24;63.93;101355.28;7400202;19;1064;-49
2023/05/05 10:14:26;;;;;;;;;;;;;;;20.16;64.10;101362.28;7399945;19;1561;-49
2023/05/05 10:16:55;;;;;;;;;;;;;;;20.20;64.08;101359.22;7397883;19;1504;-49
2023/05/05 10:19:25;;;;;;;;;;;;;;;20.31;63.69;101354.78;7397301;19;2168;-49
2023/05/05 10:21:54;;;;;;;;;;;;;;;20.29;63.72;101352.22;7399224;19;1688;-49
2023/05/05 10:24:28;;;;;;;;;;;;;;;20.22;64.14;101354.56;7398823;19;1195;-49
2023/05/05 10:26:58;;;;;;;;;;;;;;;20.00;64.69;101368.09;7400275;19;1583;-49
2023/05/05 10:29:31;;;;;;;;;;;;;;;20.20;63.99;101343.09;7399283;19;1810;-48
2023/05/05 10:32:02;;;;;;;;;;;;;;;20.06;64.61;101355.00;7398913;19;1757;-49
2023/05/05 10:34:32;;;;;;;;;;;;;;;20.13;64.25;101347.28;7398878;19;1040;-49
2023/05/05 10:37:01;;;;;;;;;;;;;;;19.90;64.94;101340.31;7398923;19;1868;-49
2023/05/05 10:39:33;;;;;;;;;;;;;;;19.93;65.04;101346.25;7398657;19;1892;-49
2023/05/05 10:42:02;;;;;;;;;;;;;;;20.03;64.65;101343.66;7399231;19;1599;-49
2023/05/05 10:44:31;;;;;;;;;;;;;;;19.85;65.04;101349.56;7399283;19;1868;-49
2023/05/05 10:47:00;;;;;;;;;;;;;;;19.79;65.21;101343.88;7399409;19;1961;-49
2023/05/05 10:49:32;;;;;;;;;;;;;;;19.62;66.06;101335.34;7399159;19;1800;-49
2023/05/05 10:52:05;;;;;;;;;;;;;;;19.66;65.81;101349.38;7398648;19;1315;-48
2023/05/05 10:54:39;;;;;;;;;;;;;;;19.84;65.19;101347.03;7398711;19;1769;-49
2023/05/05 10:57:11;;;;;;;;;;;;;;;19.85;65.40;101344.19;7397862;19;1612;-49
2023/05/05 10:59:46;;;;;;;;;;;;;;;19.86;65.04;101335.19;7397556;19;1634;-49
2023/05/05 11:02:25;;;;;;;;;;;;;;;19.71;65.32;101336.44;7398171;19;1480;-49
2023/05/05 11:05:05;;;;;;;;;;;;;;;19.82;65.23;101340.94;7398069;19;1492;-49
2023/05/05 11:07:35;;;;;;;;;;;;;;;19.98;64.57;101332.47;7397651;19;1544;-47
2023/05/05 11:10:06;;;;;;;;;;;;;;;20.07;64.37;101331.69;7396129;19;1491;-49
2023/05/05 11:12:35;;;;;;;;;;;;;;;20.13;64.10;101317.75;7397124;19;1596;-49
2023/05/05 11:15:18;;;;;;;;;;;;;;;20.14;64.22;101315.94;7398572;19;1298;-49
2023/05/05 11:17:47;;;;;;;;;;;;;;;20.29;63.97;101330.72;7397874;19;1856;-49
2023/05/05 11:20:15;;;;;;;;;;;;;;;20.25;63.77;101313.16;7396295;19;1754;-49
2023/05/05 11:23:10;;;;;;;;;;;;;;;20.24;63.78;101306.09;7396719;19;1184;-49
2023/05/05 11:25:50;;;;;;;;;;;;;;;20.32;63.50;101326.94;7395186;19;2085;-48
2023/05/05 11:28:19;;;;;;;;;;;;;;;20.27;63.81;101317.44;7395618;19;1092;-48
2023/05/05 11:31:03;;;;;;;;;;;;;;;20.22;63.88;101308.91;7397499;19;1919;-49
2023/05/05 11:33:32;;;;;;;;;;;;;;;20.21;63.97;101307.22;7397905;19;1928;-49
2023/05/05 11:36:01;;;;;;;;;;;;;;;20.20;63.82;101289.41;7398102;19;1500;-48
2023/05/05 11:38:40;;;;;;;;;;;;;;;20.19;64.02;101281.47;7395968;19;2009;-49
2023/05/05 11:41:14;;;;;;;;;;;;;;;20.21;64.00;101285.75;7398372;19;1761;-48
2023/05/05 11:43:42;;;;;;;;;;;;;;;20.23;63.86;101282.91;7396178;19;1460;-49
2023/05/05 11:46:11;;;;;;;;;;;;;;;20.29;63.62;101278.84;7396391;19;1827;-49
2023/05/05 11:48:45;;;;;;;;;;;;;;;20.20;63.75;101267.91;7397711;19;1425;-49
2023/05/05 11:51:14;;;;;;;;;;;;;;;20.15;63.99;101270.13;7398162;19;1797;-49
2023/05/05 11:53:44;;;;;;;;;;;;;;;20.18;64.24;101274.41;7397545;19;1670;-49
2023/05/05 11:56:17;;;;;;;;;;;;;;;20.11;64.50;101268.69;7397650;19;1750;-48
2023/05/05 11:58:46;;;;;;;;;;;;;;;19.67;65.62;101265.19;7396817;19;1850;-49
2023/05/05 12:01:14;;;;;;;;;;;;;;;19.59;66.21;101265.00;7395638;19;1432;-49
2023/05/05 12:03:44;;;;;;;;;;;;;;;19.51;67.19;101264.78;7396103;19;1039;-48
2023/05/05 12:06:12;;;;;;;;;;;;;;;19.54;67.24;101259.19;7395299;19;1860;-48
2023/05/05 12:08:41;;;;;;;;;;;;;;;19.60;66.78;101258.66;7394227;19;1837;-49
2023/05/05 12:11:09;;;;;;;;;;;;;;;19.53;67.14;101246.72;7396074;19;1721;-53
2023/05/05 12:13:40;;;;;;;;;;;;;;;19.45;67.29;101248.19;7393577;19;1498;-53
2023/05/05 12:16:12;;;;;;;;;;;;;;;19.46;67.07;101252.59;7394696;19;2131;-53
2023/05/05 12:18:41;;;;;;;;;;;;;;;19.53;67.65;101250.25;7395596;19;1863;-53
2023/05/05 12:21:15;;;;;;;;;;;;;;;19.71;66.91;101242.53;7396244;19;1242;-53
2023/05/05 12:23:44;;;;;;;;;;;;;;;19.83;65.93;101244.19;7395666;19;1567;-53
2023/05/05 12:26:25;;;;;;;;;;;;;;;19.80;66.53;101232.88;7395300;19;1592;-53
2023/05/05 12:28:56;;;;;;;;;;;;;;;19.81;66.68;101230.03;7395465;19;1250;-53
2023/05/05 12:31:25;;;;;;;;;;;;;;;19.96;66.10;101221.69;7393596;19;2046;-53
2023/05/05 12:33:53;;;;;;;;;;;;;;;19.91;66.23;101223.91;7394180;19;1148;-53
2023/05/05 12:36:22;;;;;;;;;;;;;;;19.98;66.52;101219.72;7395799;19;1157;-53
2023/05/05 12:38:51;;;;;;;;;;;;;;;20.03;66.08;101214.78;7395591;19;1870;-53
2023/05/05 12:41:22;;;;;;;;;;;;;;;19.83;67.44;101211.13;6877416;19;10000186;-53
2023/05/05 12:43:55;;;;;;;;;;;;;;;20.11;65.92;101212.31;7394630;19;1636;-45
2023/05/05 12:46:28;;;;;;;;;;;;;;;20.24;65.69;101204.06;7394867;19;1507;-45
2023/05/05 12:49:04;;;;;;;;;;;;;;;20.21;65.63;101221.28;7393187;19;1473;-46
2023/05/05 12:51:33;;;;;;;;;;;;;;;20.10;66.30;101202.56;7391614;19;1448;-45
2023/05/05 12:54:04;;;;;;;;;;;;;;;20.09;66.21;101183.91;7394846;19;1496;-41
2023/05/05 12:56:34;;;;;;;;;;;;;;;19.91;66.80;101191.69;7387953;19;1525;-46
2023/05/05 12:59:02;;;;;;;;;;;;;;;20.04;66.33;101189.66;7394184;19;1860;-46
2023/05/05 13:01:33;;;;;;;;;;;;;;;20.07;66.05;101186.69;7393262;19;1488;-46